Time;durP1;ratioP1;P1;durP2;ratioP2;P2;SDS_P1;SDS_P2;PMS_P1;PMS_P2;Temp;Humidity;BMP_temperature;BMP_pressure;BME280_temperature;BME280_humidity;BME280_pressure;Samples;Min_cycle;Max_cycle;Signal;HPM_P1;HPM_P2
2024/01/05 00:02:06;;;;;;;5.77;3.50;;;;;;;;;;4961796;28;20063;-51
2024/01/05 00:05:00;;;;;;;12.43;4.47;;;;;;;;;;4966205;28;20058;-49
2024/01/05 00:07:47;;;;;;;11.07;4.00;;;;;;;;;;4961597;28;20066;-53
2024/01/05 00:10:41;;;;;;;6.67;3.73;;;;;;;;;;4965080;28;20051;-49
2024/01/05 00:13:35;;;;;;;8.02;2.97;;;;;;;;;;4974482;28;20403;-51
2024/01/05 00:16:29;;;;;;;8.03;4.07;;;;;;;;;;4981818;28;20054;-52
2024/01/05 00:19:16;;;;;;;8.60;4.22;;;;;;;;;;4983371;28;20046;-46
2024/01/05 00:22:10;;;;;;;7.90;3.23;;;;;;;;;;4978026;28;20899;-49
2024/01/05 00:24:38;;;;;;;9.37;4.07;;;;;;;;;;4982569;28;20055;-47
2024/01/05 00:27:12;;;;;;;7.20;3.53;;;;;;;;;;4980789;28;20046;-60
2024/01/05 00:29:39;;;;;;;7.97;3.83;;;;;;;;;;4983826;28;20046;-66
2024/01/05 00:32:07;;;;;;;8.63;3.53;;;;;;;;;;4980142;28;20058;-60
2024/01/05 00:34:47;;;;;;;12.00;4.97;;;;;;;;;;4982395;28;20050;-60
2024/01/05 00:37:15;;;;;;;10.10;3.77;;;;;;;;;;4985117;28;20050;-62
2024/01/05 00:39:49;;;;;;;8.63;3.57;;;;;;;;;;4982470;28;20058;-59
2024/01/05 00:42:17;;;;;;;7.63;3.70;;;;;;;;;;4983174;28;20421;-60
2024/01/05 00:44:44;;;;;;;8.20;3.90;;;;;;;;;;4966922;28;20089;-59
2024/01/05 00:47:18;;;;;;;6.50;3.30;;;;;;;;;;4980487;28;20058;-61
2024/01/05 00:49:45;;;;;;;9.47;3.93;;;;;;;;;;4982942;28;20121;-62
2024/01/05 00:52:13;;;;;;;8.87;4.40;;;;;;;;;;4981248;28;20078;-62
2024/01/05 00:54:48;;;;;;;8.53;3.47;;;;;;;;;;4982184;28;20055;-62
2024/01/05 00:57:15;;;;;;;10.23;3.80;;;;;;;;;;4984252;28;20054;-61
2024/01/05 00:59:49;;;;;;;7.03;3.70;;;;;;;;;;4982684;28;20056;-50
2024/01/05 01:02:16;;;;;;;9.77;3.90;;;;;;;;;;4982924;28;20058;-50
2024/01/05 01:04:43;;;;;;;9.50;3.57;;;;;;;;;;4983774;28;20055;-51
2024/01/05 01:07:17;;;;;;;8.07;4.20;;;;;;;;;;4973758;28;20066;-49
2024/01/05 01:09:44;;;;;;;8.80;3.90;;;;;;;;;;4979284;28;20533;-51
2024/01/05 01:12:32;;;;;;;7.47;3.67;;;;;;;;;;4983722;28;20054;-48
2024/01/05 01:15:09;;;;;;;10.00;3.97;;;;;;;;;;4961478;28;20589;-62
2024/01/05 01:17:44;;;;;;;9.77;4.22;;;;;;;;;;4958224;28;20047;-62
2024/01/05 01:20:11;;;;;;;9.73;3.60;;;;;;;;;;4961469;28;20063;-62
2024/01/05 01:22:39;;;;;;;9.90;3.57;;;;;;;;;;4963031;28;20054;-62
2024/01/05 01:25:12;;;;;;;12.47;4.33;;;;;;;;;;4960437;28;20640;-62
2024/01/05 01:27:39;;;;;;;8.70;4.37;;;;;;;;;;4963639;28;20055;-66
2024/01/05 01:30:13;;;;;;;8.80;4.27;;;;;;;;;;4962788;28;20051;-66
2024/01/05 01:32:42;;;;;;;7.43;3.60;;;;;;;;;;4964469;28;20051;-65
2024/01/05 01:35:09;;;;;;;9.17;3.77;;;;;;;;;;4966197;28;20110;-66
2024/01/05 01:37:43;;;;;;;8.73;4.13;;;;;;;;;;4964968;28;20058;-65
2024/01/05 01:40:11;;;;;;;10.43;4.63;;;;;;;;;;4962476;28;20061;-66
2024/01/05 01:42:45;;;;;;;8.83;3.87;;;;;;;;;;4966481;28;20063;-62
2024/01/05 01:45:13;;;;;;;9.13;3.93;;;;;;;;;;4966020;28;20090;-62
2024/01/05 01:47:41;;;;;;;8.20;4.07;;;;;;;;;;4964911;28;20113;-61
2024/01/05 01:50:18;;;;;;;7.57;3.73;;;;;;;;;;4963104;28;21034;-62
2024/01/05 01:52:47;;;;;;;9.77;4.27;;;;;;;;;;4965318;28;20102;-61
2024/01/05 01:55:21;;;;;;;10.40;5.10;;;;;;;;;;4964824;28;20054;-62
2024/01/05 01:57:49;;;;;;;8.33;4.07;;;;;;;;;;4950903;28;20057;-62
2024/01/05 02:00:17;;;;;;;11.10;4.60;;;;;;;;;;4962399;28;20046;-62
2024/01/05 02:02:52;;;;;;;9.67;4.20;;;;;;;;;;4963829;28;20065;-62
2024/01/05 02:05:19;;;;;;;8.20;4.20;;;;;;;;;;4947184;28;20062;-62
2024/01/05 02:07:46;;;;;;;9.43;4.47;;;;;;;;;;4958923;28;21083;-62
2024/01/05 02:10:20;;;;;;;7.83;4.00;;;;;;;;;;4964381;28;20590;-62
2024/01/05 02:12:47;;;;;;;9.00;4.17;;;;;;;;;;4967534;28;20089;-66
2024/01/05 02:15:28;;;;;;;9.60;4.60;;;;;;;;;;4983467;28;20587;-66
2024/01/05 02:17:55;;;;;;;10.77;4.63;;;;;;;;;;4984348;28;20047;-66
2024/01/05 02:20:29;;;;;;;10.13;4.50;;;;;;;;;;4984175;28;21618;-66
2024/01/05 02:22:58;;;;;;;9.40;3.97;;;;;;;;;;4982205;28;20091;-60
2024/01/05 02:25:26;;;;;;;9.80;4.43;;;;;;;;;;4974295;28;20054;-60
2024/01/05 02:28:00;;;;;;;9.03;4.60;;;;;;;;;;4986525;28;20046;-60
2024/01/05 02:30:27;;;;;;;8.43;4.13;;;;;;;;;;4985599;28;20520;-60
2024/01/05 02:33:01;;;;;;;14.17;5.53;;;;;;;;;;4980457;28;20046;-59
2024/01/05 02:35:29;;;;;;;8.73;3.73;;;;;;;;;;4984328;28;20421;-60
2024/01/05 02:37:56;;;;;;;9.33;4.50;;;;;;;;;;4984154;28;20058;-59
2024/01/05 02:40:30;;;;;;;7.90;4.00;;;;;;;;;;4980384;28;20065;-66
2024/01/05 02:42:57;;;;;;;8.90;4.17;;;;;;;;;;4976204;28;20158;-66
2024/01/05 02:45:32;;;;;;;9.40;4.50;;;;;;;;;;4983401;28;20517;-66
2024/01/05 02:47:59;;;;;;;8.33;3.47;;;;;;;;;;4985830;28;20097;-67
2024/01/05 02:50:26;;;;;;;13.07;4.50;;;;;;;;;;4981246;28;20297;-49
2024/01/05 02:53:01;;;;;;;9.30;4.23;;;;;;;;;;4975831;28;20049;-66
2024/01/05 02:55:28;;;;;;;10.93;3.90;;;;;;;;;;4984556;28;20062;-68
2024/01/05 02:58:03;;;;;;;7.33;4.10;;;;;;;;;;4985647;28;20058;-68
2024/01/05 03:00:31;;;;;;;7.80;4.07;;;;;;;;;;4982555;28;20474;-68
2024/01/05 03:02:58;;;;;;;8.80;4.10;;;;;;;;;;4985757;28;20486;-69
2024/01/05 03:05:33;;;;;;;9.80;4.37;;;;;;;;;;4984109;28;20089;-68
2024/01/05 03:08:00;;;;;;;10.73;3.73;;;;;;;;;;4984954;28;20101;-62
2024/01/05 03:10:27;;;;;;;8.13;3.90;;;;;;;;;;4983412;28;20121;-61
2024/01/05 03:13:08;;;;;;;7.27;3.70;;;;;;;;;;4983181;28;20057;-61
2024/01/05 03:15:42;;;;;;;11.60;4.00;;;;;;;;;;4985609;28;20124;-63
2024/01/05 03:18:15;;;;;;;8.97;3.70;;;;;;;;;;4981203;28;20050;-63
2024/01/05 03:20:42;;;;;;;7.47;3.73;;;;;;;;;;4980829;28;20497;-61
2024/01/05 03:23:10;;;;;;;8.17;4.30;;;;;;;;;;4972529;28;20049;-64
2024/01/05 03:25:43;;;;;;;7.77;3.77;;;;;;;;;;4981778;28;20065;-64
2024/01/05 03:28:17;;;;;;;12.07;4.30;;;;;;;;;;4980828;28;20105;-64
2024/01/05 03:30:51;;;;;;;9.47;3.93;;;;;;;;;;4982193;28;20054;-64
2024/01/05 03:33:22;;;;;;;10.27;4.27;;;;;;;;;;4980779;28;20141;-64
2024/01/05 03:35:50;;;;;;;9.20;4.27;;;;;;;;;;4981609;28;20058;-63
2024/01/05 03:38:25;;;;;;;7.57;4.27;;;;;;;;;;4985003;28;20058;-62
2024/01/05 03:40:52;;;;;;;7.50;3.37;;;;;;;;;;4983546;28;20454;-62
2024/01/05 03:43:26;;;;;;;11.27;4.10;;;;;;;;;;4966661;28;20077;-62
2024/01/05 03:45:53;;;;;;;12.60;4.23;;;;;;;;;;4981797;28;20054;-61
2024/01/05 03:48:22;;;;;;;9.17;3.80;;;;;;;;;;4982542;28;21658;-64
2024/01/05 03:50:56;;;;;;;7.97;3.50;;;;;;;;;;4980865;28;20054;-52
2024/01/05 03:53:23;;;;;;;7.83;3.50;;;;;;;;;;4980871;28;20058;-52
2024/01/05 03:56:00;;;;;;;8.87;3.60;;;;;;;;;;4981647;28;20058;-51
2024/01/05 03:58:28;;;;;;;7.73;3.80;;;;;;;;;;4981456;28;20054;-52
2024/01/05 04:00:56;;;;;;;6.30;3.63;;;;;;;;;;4979522;28;20394;-52
2024/01/05 04:03:29;;;;;;;8.63;3.80;;;;;;;;;;4982753;28;20054;-52
2024/01/05 04:05:57;;;;;;;8.97;3.93;;;;;;;;;;4981998;28;20054;-57
2024/01/05 04:08:31;;;;;;;10.77;3.70;;;;;;;;;;4980973;28;20077;-59
2024/01/05 04:10:58;;;;;;;6.47;3.43;;;;;;;;;;4978271;28;20062;-60
2024/01/05 04:13:26;;;;;;;6.87;3.70;;;;;;;;;;4977888;28;22003;-59
2024/01/05 04:16:06;;;;;;;7.37;3.43;;;;;;;;;;4985594;28;20105;-62
2024/01/05 04:18:33;;;;;;;8.23;3.47;;;;;;;;;;4981741;28;20438;-63
2024/01/05 04:21:09;;;;;;;6.23;3.30;;;;;;;;;;4981704;28;20054;-63
2024/01/05 04:23:36;;;;;;;6.80;3.60;;;;;;;;;;4980043;28;20058;-62
2024/01/05 04:26:04;;;;;;;7.63;3.27;;;;;;;;;;4978174;28;20145;-63
2024/01/05 04:28:37;;;;;;;6.83;3.30;;;;;;;;;;4985142;28;20050;-63
2024/01/05 04:31:04;;;;;;;6.00;3.37;;;;;;;;;;4983019;28;20664;-63
2024/01/05 04:33:39;;;;;;;6.13;3.13;;;;;;;;;;4983884;28;20325;-54
2024/01/05 04:36:07;;;;;;;4.77;2.83;;;;;;;;;;4980725;28;20058;-53
2024/01/05 04:38:34;;;;;;;7.57;3.30;;;;;;;;;;4983435;28;20055;-51
2024/01/05 04:41:08;;;;;;;6.10;3.50;;;;;;;;;;4980829;28;20062;-56
2024/01/05 04:43:36;;;;;;;7.77;3.40;;;;;;;;;;4985411;28;20113;-68
2024/01/05 04:46:05;;;;;;;7.13;3.50;;;;;;;;;;4979948;28;20054;-63
2024/01/05 04:48:39;;;;;;;8.53;3.73;;;;;;;;;;4983173;28;20787;-63
2024/01/05 04:51:07;;;;;;;9.83;3.27;;;;;;;;;;4982000;28;20061;-63
2024/01/05 04:53:41;;;;;;;5.67;3.43;;;;;;;;;;4984115;28;20054;-63
2024/01/05 04:56:09;;;;;;;8.03;3.43;;;;;;;;;;4979886;28;20058;-61
2024/01/05 04:58:36;;;;;;;8.47;3.67;;;;;;;;;;4982740;28;20074;-62
2024/01/05 05:01:10;;;;;;;5.60;3.13;;;;;;;;;;4982696;28;20065;-62
2024/01/05 05:03:37;;;;;;;8.30;3.43;;;;;;;;;;4982552;28;20054;-70
2024/01/05 05:06:11;;;;;;;6.73;3.10;;;;;;;;;;4985091;28;20062;-69
2024/01/05 05:08:39;;;;;;;6.13;3.57;;;;;;;;;;4981673;28;20050;-69
2024/01/05 05:11:06;;;;;;;5.77;3.10;;;;;;;;;;4981148;28;20062;-69
2024/01/05 05:13:53;;;;;;;8.13;3.43;;;;;;;;;;4983147;28;20447;-60
2024/01/05 05:16:27;;;;;;;11.00;3.70;;;;;;;;;;4978996;28;20486;-63
2024/01/05 05:19:01;;;;;;;8.27;3.77;;;;;;;;;;4987458;28;20657;-62
2024/01/05 05:21:29;;;;;;;9.50;3.90;;;;;;;;;;4984900;28;20089;-66
2024/01/05 05:23:56;;;;;;;7.70;3.40;;;;;;;;;;4984378;28;20421;-62
2024/01/05 05:26:30;;;;;;;12.13;3.90;;;;;;;;;;4987909;28;20059;-61
2024/01/05 05:28:57;;;;;;;10.93;3.40;;;;;;;;;;4986037;28;20050;-64
2024/01/05 05:31:31;;;;;;;8.60;3.77;;;;;;;;;;4985737;28;20707;-51
2024/01/05 05:33:59;;;;;;;7.63;3.67;;;;;;;;;;4986941;28;20133;-55
2024/01/05 05:36:26;;;;;;;6.77;3.70;;;;;;;;;;4987457;28;20055;-58
2024/01/05 05:39:00;;;;;;;10.17;3.90;;;;;;;;;;4982610;28;20046;-54
2024/01/05 05:41:28;;;;;;;7.27;3.47;;;;;;;;;;4982271;28;20062;-62
2024/01/05 05:44:01;;;;;;;9.30;3.90;;;;;;;;;;4986968;28;20054;-60
2024/01/05 05:46:28;;;;;;;12.67;4.13;;;;;;;;;;4982734;28;20081;-63
2024/01/05 05:48:55;;;;;;;7.57;3.50;;;;;;;;;;4985771;28;20435;-60
2024/01/05 05:51:29;;;;;;;7.97;3.33;;;;;;;;;;4983931;28;20063;-61
2024/01/05 05:53:57;;;;;;;8.67;4.10;;;;;;;;;;4985102;28;20422;-63
2024/01/05 05:56:24;;;;;;;10.40;4.00;;;;;;;;;;4984731;28;20056;-62
2024/01/05 05:58:58;;;;;;;7.97;3.57;;;;;;;;;;4984991;28;20050;-51
2024/01/05 06:01:25;;;;;;;8.23;3.63;;;;;;;;;;4984560;28;20577;-52
2024/01/05 06:03:59;;;;;;;7.00;3.90;;;;;;;;;;4985409;28;20186;-54
2024/01/05 06:06:27;;;;;;;5.97;3.30;;;;;;;;;;4986779;28;20066;-51
2024/01/05 06:08:55;;;;;;;6.07;3.83;;;;;;;;;;4981650;28;20061;-58
2024/01/05 06:11:28;;;;;;;8.27;4.30;;;;;;;;;;4985274;28;20058;-49
2024/01/05 06:14:04;;;;;;;11.67;3.93;;;;;;;;;;4976278;28;20502;-64
2024/01/05 06:16:38;;;;;;;7.73;3.60;;;;;;;;;;4963397;28;20109;-64
2024/01/05 06:19:05;;;;;;;7.70;4.10;;;;;;;;;;4960028;28;20391;-64
2024/01/05 06:21:59;;;;;;;7.27;3.40;;;;;;;;;;4963068;28;20053;-64
2024/01/05 06:24:47;;;;;;;6.85;3.83;;;;;;;;;;4963857;28;20097;-64
2024/01/05 06:27:40;;;;;;;8.83;3.77;;;;;;;;;;4965914;28;20573;-60
2024/01/05 06:30:34;;;;;;;9.73;3.80;;;;;;;;;;4963172;28;20062;-60
2024/01/05 06:33:28;;;;;;;7.60;3.43;;;;;;;;;;4962643;28;20055;-61
2024/01/05 06:36:25;;;;;;;9.03;3.90;;;;;;;;;;4966277;28;20141;-61
2024/01/05 06:39:12;;;;;;;10.47;3.77;;;;;;;;;;4963638;28;20066;-56
2024/01/05 06:42:06;;;;;;;6.07;3.33;;;;;;;;;;4964278;28;20318;-63
2024/01/05 06:44:54;;;;;;;6.13;3.45;;;;;;;;;;4965945;28;20082;-64
2024/01/05 06:47:48;;;;;;;7.90;3.37;;;;;;;;;;4965168;28;20138;-63
2024/01/05 06:50:42;;;;;;;7.37;3.50;;;;;;;;;;4965932;28;20062;-63
2024/01/05 06:53:30;;;;;;;8.80;3.03;;;;;;;;;;4963777;28;20134;-65
2024/01/05 06:56:28;;;;;;;10.17;3.03;;;;;;;;;;4967420;28;20051;-54
2024/01/05 06:59:20;;;;;;;6.13;3.17;;;;;;;;;;4966144;28;20600;-59
2024/01/05 07:02:06;;;;;;;6.43;3.37;;;;;;;;;;4966305;28;20059;-54
2024/01/05 07:05:00;;;;;;;7.07;3.83;;;;;;;;;;4962444;28;20306;-57
2024/01/05 07:07:47;;;;;;;11.67;5.30;;;;;;;;;;4963950;28;20067;-63
2024/01/05 07:10:41;;;;;;;6.00;3.40;;;;;;;;;;4964435;28;20068;-68
2024/01/05 07:13:29;;;;;;;10.43;3.40;;;;;;;;;;4967982;28;20066;-69
2024/01/05 07:16:23;;;;;;;7.97;3.60;;;;;;;;;;4978933;28;20062;-69
2024/01/05 07:19:10;;;;;;;6.65;3.53;;;;;;;;;;4980779;28;20505;-69
2024/01/05 07:22:03;;;;;;;7.73;4.03;;;;;;;;;;4981207;28;20055;-66
2024/01/05 07:24:51;;;;;;;7.90;3.20;;;;;;;;;;4979555;28;20183;-57
2024/01/05 07:27:44;;;;;;;10.23;3.47;;;;;;;;;;4974144;28;20050;-59
2024/01/05 07:30:31;;;;;;;9.90;3.97;;;;;;;;;;4977936;28;20105;-59
2024/01/05 07:33:25;;;;;;;10.10;4.87;;;;;;;;;;4981769;28;20054;-60
2024/01/05 07:36:12;;;;;;;11.32;3.25;;;;;;;;;;4984765;28;20129;-58
2024/01/05 07:39:06;;;;;;;11.27;4.60;;;;;;;;;;4982295;28;20053;-60
2024/01/05 07:41:54;;;;;;;11.88;4.65;;;;;;;;;;4982989;28;20065;-61
2024/01/05 07:44:47;;;;;;;11.80;4.17;;;;;;;;;;4981477;28;20160;-58
2024/01/05 07:47:35;;;;;;;11.07;4.30;;;;;;;;;;4983494;28;20060;-60
2024/01/05 07:50:28;;;;;;;8.80;4.20;;;;;;;;;;4985593;28;20057;-61
2024/01/05 07:53:16;;;;;;;12.65;4.20;;;;;;;;;;4981670;28;20430;-59
2024/01/05 07:56:09;;;;;;;9.27;4.27;;;;;;;;;;4978575;28;20065;-60
2024/01/05 07:58:56;;;;;;;11.07;3.60;;;;;;;;;;4971487;28;20073;-60
2024/01/05 08:01:53;;;;;;;7.77;3.30;;;;;;;;;;4979064;28;20077;-57
2024/01/05 08:04:40;;;;;;;8.27;3.97;;;;;;;;;;4982116;28;20054;-52
2024/01/05 08:07:37;;;;;;;7.77;3.70;;;;;;;;;;4974236;28;20056;-67
2024/01/05 08:10:25;;;;;;;17.48;5.35;;;;;;;;;;4983112;28;20054;-66
2024/01/05 08:13:26;;;;;;;6.60;3.50;;;;;;;;;;4977241;28;20051;-68
2024/01/05 08:16:19;;;;;;;8.23;3.40;;;;;;;;;;4979375;28;20502;-68
2024/01/05 08:19:13;;;;;;;8.90;3.60;;;;;;;;;;4976327;28;20094;-66
2024/01/05 08:22:07;;;;;;;7.20;4.20;;;;;;;;;;4972020;28;20050;-66
2024/01/05 08:24:55;;;;;;;9.75;3.15;;;;;;;;;;4968966;28;20055;-67
2024/01/05 08:27:57;;;;;;;7.80;3.97;;;;;;;;;;4976751;28;20514;-66
2024/01/05 08:30:44;;;;;;;16.73;4.73;;;;;;;;;;4971328;28;20418;-68
2024/01/05 08:33:38;;;;;;;9.80;3.77;;;;;;;;;;4981119;28;20494;-52
2024/01/05 08:36:27;;;;;;;4.93;3.10;;;;;;;;;;4983784;28;20121;-48
2024/01/05 08:39:19;;;;;;;10.33;4.07;;;;;;;;;;4984924;28;20489;-54
2024/01/05 08:42:07;;;;;;;5.80;3.03;;;;;;;;;;4986122;28;20055;-51
2024/01/05 08:45:01;;;;;;;9.57;3.93;;;;;;;;;;4983867;28;20050;-55
2024/01/05 08:47:55;;;;;;;7.33;3.87;;;;;;;;;;4983472;28;20062;-54
2024/01/05 08:50:49;;;;;;;12.47;4.00;;;;;;;;;;4984372;28;20054;-64
2024/01/05 08:53:37;;;;;;;10.27;3.83;;;;;;;;;;4986240;28;20047;-63
2024/01/05 08:56:30;;;;;;;9.47;4.20;;;;;;;;;;4983914;28;20054;-63
2024/01/05 08:59:17;;;;;;;5.68;3.17;;;;;;;;;;4982328;28;20113;-63
2024/01/05 09:02:12;;;;;;;9.00;3.70;;;;;;;;;;4985537;28;20143;-59
2024/01/05 09:05:00;;;;;;;12.40;4.65;;;;;;;;;;4983617;28;20053;-51
2024/01/05 09:07:53;;;;;;;7.47;4.00;;;;;;;;;;4985102;28;20156;-55
2024/01/05 09:10:41;;;;;;;5.70;3.63;;;;;;;;;;4985010;28;20058;-54
2024/01/05 09:13:47;;;;;;;8.90;4.13;;;;;;;;;;4982824;28;20502;-49
2024/01/05 09:16:41;;;;;;;8.23;4.30;;;;;;;;;;4985430;28;20131;-53
2024/01/05 09:19:35;;;;;;;8.83;3.70;;;;;;;;;;4986065;28;20050;-59
2024/01/05 09:22:23;;;;;;;5.57;2.63;;;;;;;;;;4982269;28;20149;-57
2024/01/05 09:25:17;;;;;;;7.47;3.93;;;;;;;;;;4984661;28;20050;-56
2024/01/05 09:28:08;;;;;;;9.53;4.13;;;;;;;;;;4979690;28;20051;-61
2024/01/05 09:31:01;;;;;;;9.20;4.00;;;;;;;;;;4985678;28;20517;-60
2024/01/05 09:33:49;;;;;;;22.92;5.05;;;;;;;;;;4984712;28;20053;-62
2024/01/05 09:36:42;;;;;;;7.53;3.90;;;;;;;;;;4983600;28;20050;-62
2024/01/05 09:39:30;;;;;;;7.97;2.95;;;;;;;;;;4979225;28;20094;-61
2024/01/05 09:42:23;;;;;;;7.77;3.50;;;;;;;;;;4984698;28;21432;-61
2024/01/05 09:45:11;;;;;;;6.75;3.20;;;;;;;;;;4981363;28;20058;-63
2024/01/05 09:48:05;;;;;;;9.40;3.90;;;;;;;;;;4984108;28;20046;-59
2024/01/05 09:51:04;;;;;;;10.20;4.75;;;;;;;;;;4979412;28;20759;-63
2024/01/05 09:53:57;;;;;;;5.70;3.70;;;;;;;;;;4973218;28;20050;-62
2024/01/05 09:56:49;;;;;;;5.78;3.10;;;;;;;;;;4959630;28;20277;-56
2024/01/05 09:59:44;;;;;;;5.80;3.40;;;;;;;;;;4977749;28;20042;-61
2024/01/05 10:02:42;;;;;;;6.80;3.10;;;;;;;;;;4983058;28;20054;-61
2024/01/05 10:05:34;;;;;;;7.33;3.63;;;;;;;;;;4972799;28;20417;-62
2024/01/05 10:08:22;;;;;;;4.93;2.67;;;;;;;;;;4973442;28;20057;-62
2024/01/05 10:11:27;;;;;;;8.87;4.00;;;;;;;;;;4978767;28;20149;-61
2024/01/05 10:14:25;;;;;;;5.50;3.40;;;;;;;;;;4981302;28;20055;-62
2024/01/05 10:17:18;;;;;;;5.83;2.73;;;;;;;;;;4981614;28;20101;-58
2024/01/05 10:20:16;;;;;;;6.93;3.33;;;;;;;;;;4984115;28;20057;-59
2024/01/05 10:23:09;;;;;;;5.83;3.27;;;;;;;;;;4978184;28;21314;-59
2024/01/05 10:25:57;;;;;;;5.43;2.78;;;;;;;;;;4983208;28;20556;-58
2024/01/05 10:28:51;;;;;;;7.50;3.20;;;;;;;;;;4980039;28;20117;-53
2024/01/05 10:31:38;;;;;;;9.07;3.33;;;;;;;;;;4983086;28;20117;-56
2024/01/05 10:34:35;;;;;;;8.13;3.73;;;;;;;;;;4981180;28;21049;-56
2024/01/05 10:37:35;;;;;;;7.53;4.00;;;;;;;;;;4981648;28;20057;-57
2024/01/05 10:40:28;;;;;;;8.73;3.87;;;;;;;;;;4979713;28;20121;-57
2024/01/05 10:43:17;;;;;;;9.90;3.87;;;;;;;;;;4981575;28;20114;-53
2024/01/05 10:46:20;;;;;;;8.67;3.97;;;;;;;;;;4980995;28;20058;-55
2024/01/05 10:49:07;;;;;;;8.40;3.37;;;;;;;;;;4978630;28;20057;-56
2024/01/05 10:52:02;;;;;;;5.97;3.87;;;;;;;;;;4983945;28;20054;-51
2024/01/05 10:54:55;;;;;;;9.03;3.60;;;;;;;;;;4977753;28;20114;-69
2024/01/05 10:57:49;;;;;;;8.07;3.60;;;;;;;;;;4983210;28;20105;-63
2024/01/05 11:00:44;;;;;;;7.40;3.60;;;;;;;;;;4981208;28;20054;-63
2024/01/05 11:03:31;;;;;;;;;;;;;;;;;;4978326;28;20054;-63
2024/01/05 11:06:25;;;;;;;6.60;3.10;;;;;;;;;;4972671;28;19929;-63
2024/01/05 11:09:24;;;;;;;5.97;3.30;;;;;;;;;;4973357;28;20184;-63
2024/01/05 11:12:05;;;;;;;6.13;3.30;;;;;;;;;;4964803;28;20050;-68
2024/01/05 11:15:07;;;;;;;6.68;3.42;;;;;;;;;;4969719;28;21676;-68
2024/01/05 11:17:53;;;;;;;7.77;3.47;;;;;;;;;;4973250;28;20062;-68
2024/01/05 11:20:39;;;;;;;6.90;3.73;;;;;;;;;;4969999;28;20787;-68
2024/01/05 11:23:08;;;;;;;8.47;4.03;;;;;;;;;;4971117;28;20077;-63
2024/01/05 11:26:00;;;;;;;6.13;3.53;;;;;;;;;;4979315;28;20561;-60
2024/01/05 11:28:47;;;;;;;7.90;3.70;;;;;;;;;;4979140;28;20062;-61
2024/01/05 11:31:45;;;;;;;7.30;4.07;;;;;;;;;;4979607;28;20050;-60
2024/01/05 11:34:37;;;;;;;13.93;4.23;;;;;;;;;;4979784;28;20054;-62
2024/01/05 11:37:33;;;;;;;7.90;3.80;;;;;;;;;;4980155;28;20059;-62
2024/01/05 11:40:35;;;;;;;6.63;3.63;;;;;;;;;;4976140;28;20065;-62
2024/01/05 11:43:37;;;;;;;6.37;3.30;;;;;;;;;;4980790;28;20058;-55
2024/01/05 11:46:42;;;;;;;9.63;4.07;;;;;;;;;;4968125;28;20062;-56
2024/01/05 11:49:41;;;;;;;5.80;3.37;;;;;;;;;;4961829;28;20062;-57
2024/01/05 11:52:27;;;;;;;8.33;3.67;;;;;;;;;;4968284;28;20962;-55
2024/01/05 11:55:20;;;;;;;7.83;4.07;;;;;;;;;;4973638;28;20991;-52
2024/01/05 11:58:08;;;;;;;7.83;3.67;;;;;;;;;;4982489;28;20053;-55
2024/01/05 12:01:07;;;;;;;6.67;3.60;;;;;;;;;;4965862;28;20274;-59
2024/01/05 12:03:54;;;;;;;6.37;3.57;;;;;;;;;;4966742;28;20054;-64
2024/01/05 12:06:54;;;;;;;5.90;3.43;;;;;;;;;;4977018;28;20541;-63
2024/01/05 12:09:41;;;;;;;8.47;3.77;;;;;;;;;;4973950;28;20141;-63
2024/01/05 12:12:34;;;;;;;11.43;4.23;;;;;;;;;;4960696;28;20395;-63
2024/01/05 12:15:28;;;;;;;5.47;3.05;;;;;;;;;;4959954;28;20057;-62
2024/01/05 12:18:30;;;;;;;7.33;4.07;;;;;;;;;;4955089;28;20064;-67
2024/01/05 12:21:19;;;;;;;8.03;3.93;;;;;;;;;;4960724;28;20051;-62
2024/01/05 12:24:12;;;;;;;7.87;3.43;;;;;;;;;;4969061;28;20064;-62
2024/01/05 12:26:59;;;;;;;7.65;3.45;;;;;;;;;;4974649;28;20050;-62
2024/01/05 12:29:53;;;;;;;8.67;3.80;;;;;;;;;;4973877;28;21503;-62
2024/01/05 12:32:41;;;;;;;10.00;4.05;;;;;;;;;;4973863;28;20061;-62
2024/01/05 12:35:35;;;;;;;7.20;3.80;;;;;;;;;;4973974;28;20065;-63
2024/01/05 12:38:24;;;;;;;8.03;3.53;;;;;;;;;;4977312;28;20051;-63
2024/01/05 12:41:19;;;;;;;8.93;4.07;;;;;;;;;;4981952;28;20042;-62
2024/01/05 12:44:10;;;;;;;8.67;4.40;;;;;;;;;;4978234;28;20054;-62
2024/01/05 12:47:03;;;;;;;8.17;3.90;;;;;;;;;;4980368;28;20223;-60
2024/01/05 12:49:51;;;;;;;10.00;4.20;;;;;;;;;;4973188;28;20058;-61
2024/01/05 12:52:44;;;;;;;6.77;3.37;;;;;;;;;;4971383;28;20315;-61
2024/01/05 12:55:34;;;;;;;5.57;3.53;;;;;;;;;;4974501;28;20062;-59
2024/01/05 12:58:29;;;;;;;5.20;3.17;;;;;;;;;;4977682;28;20065;-56
2024/01/05 13:01:17;;;;;;;8.63;3.33;;;;;;;;;;4977593;28;20081;-54
2024/01/05 13:04:10;;;;;;;8.17;3.33;;;;;;;;;;4974388;28;20054;-55
2024/01/05 13:07:08;;;;;;;4.27;2.57;;;;;;;;;;4977003;28;20058;-55
2024/01/05 13:10:00;;;;;;;5.70;2.90;;;;;;;;;;4980828;28;20164;-55
2024/01/05 13:12:47;;;;;;;6.40;3.30;;;;;;;;;;4978666;28;20105;-61
2024/01/05 13:15:49;;;;;;;5.97;2.70;;;;;;;;;;4976064;28;21567;-62
2024/01/05 13:18:36;;;;;;;5.93;3.50;;;;;;;;;;4976307;28;20069;-61
2024/01/05 13:21:30;;;;;;;4.53;2.80;;;;;;;;;;4975233;28;20069;-61
2024/01/05 13:24:17;;;;;;;4.23;2.80;;;;;;;;;;4981282;28;20050;-61
2024/01/05 13:27:13;;;;;;;6.87;3.07;;;;;;;;;;4982098;28;20433;-62
2024/01/05 13:30:01;;;;;;;6.17;3.17;;;;;;;;;;4981599;28;20140;-63
2024/01/05 13:32:54;;;;;;;5.53;3.43;;;;;;;;;;4984778;28;20390;-60
2024/01/05 13:35:42;;;;;;;5.93;3.03;;;;;;;;;;4983925;28;20046;-57
2024/01/05 13:38:36;;;;;;;7.97;3.60;;;;;;;;;;4980823;28;20054;-60
2024/01/05 13:41:23;;;;;;;10.40;3.70;;;;;;;;;;4983667;28;20065;-61
2024/01/05 13:44:17;;;;;;;6.83;3.07;;;;;;;;;;4979658;28;20125;-63
2024/01/05 13:47:04;;;;;;;9.80;3.80;;;;;;;;;;4981110;28;20082;-63
2024/01/05 13:49:58;;;;;;;5.80;3.43;;;;;;;;;;4987189;28;20065;-63
2024/01/05 13:52:45;;;;;;;7.97;3.30;;;;;;;;;;4981871;28;20066;-63
2024/01/05 13:55:39;;;;;;;5.50;3.43;;;;;;;;;;4980574;28;20113;-63
2024/01/05 13:58:33;;;;;;;6.53;3.30;;;;;;;;;;4980417;28;20169;-63
2024/01/05 14:01:28;;;;;;;6.60;3.50;;;;;;;;;;4982100;28;20121;-58
2024/01/05 14:04:21;;;;;;;8.53;3.60;;;;;;;;;;4976476;28;20085;-61
2024/01/05 14:07:09;;;;;;;10.27;3.63;;;;;;;;;;4982632;28;20066;-59
2024/01/05 14:10:05;;;;;;;8.47;3.93;;;;;;;;;;4983335;28;20058;-63
2024/01/05 14:12:50;;;;;;;6.28;3.30;;;;;;;;;;4984595;28;20057;-68
2024/01/05 14:15:51;;;;;;;6.30;3.63;;;;;;;;;;4980309;28;20054;-68
2024/01/05 14:18:38;;;;;;;4.63;2.77;;;;;;;;;;4979319;28;20605;-68
2024/01/05 14:21:32;;;;;;;6.83;3.37;;;;;;;;;;4982192;28;20144;-66
2024/01/05 14:24:20;;;;;;;6.83;3.57;;;;;;;;;;4981935;28;20113;-68
2024/01/05 14:27:16;;;;;;;6.80;3.40;;;;;;;;;;4981831;28;20305;-66
2024/01/05 14:30:05;;;;;;;6.13;3.30;;;;;;;;;;4977402;28;20517;-57
2024/01/05 14:32:57;;;;;;;8.13;3.20;;;;;;;;;;4977267;28;20117;-60
2024/01/05 14:35:46;;;;;;;7.20;3.33;;;;;;;;;;4982823;28;20057;-60
2024/01/05 14:38:39;;;;;;;7.33;3.30;;;;;;;;;;4979415;28;20065;-58
2024/01/05 14:41:27;;;;;;;9.40;3.92;;;;;;;;;;4981022;28;20073;-62
2024/01/05 14:44:20;;;;;;;7.10;3.37;;;;;;;;;;4978269;28;20062;-61
2024/01/05 14:47:07;;;;;;;5.20;2.90;;;;;;;;;;4972604;28;21124;-62
2024/01/05 14:50:02;;;;;;;8.53;3.60;;;;;;;;;;4976557;28;20305;-61
2024/01/05 14:52:48;;;;;;;6.43;3.57;;;;;;;;;;4981866;28;20124;-63
2024/01/05 14:55:44;;;;;;;9.90;3.80;;;;;;;;;;4976469;28;20308;-54
2024/01/05 14:58:32;;;;;;;6.77;3.93;;;;;;;;;;4978213;28;20086;-49
2024/01/05 15:01:25;;;;;;;6.33;3.13;;;;;;;;;;4983745;28;20106;-46
2024/01/05 15:04:12;;;;;;;7.63;3.45;;;;;;;;;;4978585;28;20117;-50
2024/01/05 15:07:06;;;;;;;6.53;3.60;;;;;;;;;;4980419;28;20466;-54
2024/01/05 15:09:53;;;;;;;5.40;2.87;;;;;;;;;;4982401;28;20046;-58
2024/01/05 15:12:47;;;;;;;6.23;3.40;;;;;;;;;;4970423;28;20345;-61
2024/01/05 15:15:42;;;;;;;7.68;3.92;;;;;;;;;;4980614;28;20117;-60
2024/01/05 15:18:35;;;;;;;10.03;4.30;;;;;;;;;;4973560;28;20502;-59
2024/01/05 15:21:30;;;;;;;8.03;3.50;;;;;;;;;;4977539;28;20082;-59
2024/01/05 15:24:23;;;;;;;8.73;3.80;;;;;;;;;;4976201;28;20062;-52
2024/01/05 15:27:12;;;;;;;6.57;3.38;;;;;;;;;;4970719;28;20058;-51
2024/01/05 15:30:05;;;;;;;9.17;3.80;;;;;;;;;;4980000;28;20049;-52
2024/01/05 15:32:52;;;;;;;9.52;3.88;;;;;;;;;;4978749;28;20057;-50
2024/01/05 15:35:46;;;;;;;6.63;3.40;;;;;;;;;;4974922;28;20062;-62
2024/01/05 15:38:41;;;;;;;6.87;3.63;;;;;;;;;;4980695;28;20490;-60
2024/01/05 15:41:28;;;;;;;9.77;4.43;;;;;;;;;;4975787;28;20058;-59
2024/01/05 15:44:21;;;;;;;6.67;3.63;;;;;;;;;;4977282;28;20324;-59
2024/01/05 15:47:08;;;;;;;7.47;3.85;;;;;;;;;;4981607;28;20050;-60
2024/01/05 15:50:02;;;;;;;6.87;3.70;;;;;;;;;;4972186;28;20141;-57
2024/01/05 15:52:50;;;;;;;6.95;3.58;;;;;;;;;;4978365;28;20046;-60
2024/01/05 15:55:44;;;;;;;10.63;4.77;;;;;;;;;;4979612;28;20093;-57
2024/01/05 15:58:31;;;;;;;14.63;4.85;;;;;;;;;;4976914;28;20113;-59
2024/01/05 16:01:25;;;;;;;10.97;4.77;;;;;;;;;;4979169;28;20113;-60
2024/01/05 16:04:12;;;;;;;9.80;4.40;;;;;;;;;;4979266;28;20050;-61
2024/01/05 16:07:06;;;;;;;8.43;4.50;;;;;;;;;;4981340;28;22079;-59
2024/01/05 16:10:00;;;;;;;10.90;5.37;;;;;;;;;;4979243;28;20526;-59
2024/01/05 16:12:54;;;;;;;10.77;4.43;;;;;;;;;;4976691;28;20058;-59
2024/01/05 16:15:48;;;;;;;10.93;4.85;;;;;;;;;;4974195;28;20082;-57
2024/01/05 16:18:47;;;;;;;10.23;4.73;;;;;;;;;;4971340;28;20214;-58